Time;durP1;ratioP1;P1;durP2;ratioP2;P2;SDS_P1;SDS_P2;PMS_P1;PMS_P2;Temp;Humidity;BMP_temperature;BMP_pressure;BME280_temperature;BME280_humidity;BME280_pressure;Samples;Min_cycle;Max_cycle;Signal;HPM_P1;HPM_P2
2022/09/24 00:00:16;;;;;;;9.37;6.80;;;;;;;11.35;100.00;100546.78;685746;28;1402;-62
2022/09/24 00:00:37;;;;;;;7.73;6.60;;;;;;;11.36;100.00;100534.56;688454;28;1044;-63
2022/09/24 00:00:57;;;;;;;8.82;6.70;;;;;;;11.40;100.00;100538.88;689371;28;4522;-62
2022/09/24 00:01:21;;;;;;;9.10;6.83;;;;;;;11.40;100.00;100541.50;689276;28;1016;-63
2022/09/24 00:01:41;;;;;;;9.00;7.13;;;;;;;11.37;100.00;100544.16;690197;28;1250;-63
2022/09/24 00:02:03;;;;;;;10.23;7.53;;;;;;;11.37;100.00;100542.38;689589;28;1363;-64
2022/09/24 00:02:23;;;;;;;9.20;7.10;;;;;;;11.38;100.00;100545.84;689000;28;1060;-63
2022/09/24 00:02:43;;;;;;;8.13;6.87;;;;;;;11.39;100.00;100540.63;688413;28;1147;-63
2022/09/24 00:03:04;;;;;;;7.88;6.53;;;;;;;11.40;100.00;100531.88;689193;28;1239;-63
2022/09/24 00:03:25;;;;;;;8.30;6.70;;;;;;;11.45;100.00;100538.81;688242;28;1001;-64
2022/09/24 00:03:52;;;;;;;8.68;6.70;;;;;;;11.47;100.00;100540.53;687097;28;4539;-62
2022/09/24 00:04:12;;;;;;;9.02;7.10;;;;;;;11.47;100.00;100537.94;689876;28;1025;-63
2022/09/24 00:04:33;;;;;;;9.85;7.03;;;;;;;11.46;100.00;100541.41;688235;28;1040;-62
2022/09/24 00:04:53;;;;;;;8.93;6.93;;;;;;;11.47;100.00;100542.31;688843;28;1343;-62
2022/09/24 00:05:13;;;;;;;9.20;6.70;;;;;;;11.46;100.00;100535.31;689673;28;1127;-63
2022/09/24 00:05:38;;;;;;;10.40;6.97;;;;;;;11.45;100.00;100539.72;689963;28;1264;-63
2022/09/24 00:06:03;;;;;;;10.13;6.75;;;;;;;11.43;100.00;100536.22;687335;28;3950;-62
2022/09/24 00:06:24;;;;;;;8.93;6.32;;;;;;;11.45;100.00;100544.94;688875;28;1012;-63
2022/09/24 00:06:46;;;;;;;9.07;6.88;;;;;;;11.47;100.00;100545.78;687193;28;4475;-63
2022/09/24 00:07:07;;;;;;;9.00;6.97;;;;;;;11.47;100.00;100540.53;688931;28;1274;-64
2022/09/24 00:07:27;;;;;;;8.70;6.93;;;;;;;11.44;100.00;100542.31;688523;28;1293;-64
2022/09/24 00:07:47;;;;;;;9.53;7.10;;;;;;;11.35;100.00;100546.78;688019;28;1088;-62
2022/09/24 00:08:08;;;;;;;8.50;6.87;;;;;;;11.30;100.00;100538.09;687667;28;1372;-64
2022/09/24 00:08:28;;;;;;;8.60;6.90;;;;;;;11.23;100.00;100545.13;687306;28;1157;-63
2022/09/24 00:08:53;;;;;;;9.60;6.80;;;;;;;11.20;100.00;100541.66;686653;28;1259;-63
2022/09/24 00:09:16;;;;;;;8.68;6.68;;;;;;;11.26;100.00;100539.00;687105;28;1030;-62
2022/09/24 00:09:36;;;;;;;8.35;6.72;;;;;;;11.22;100.00;100542.53;683052;28;2340;-63
2022/09/24 00:09:56;;;;;;;8.33;6.70;;;;;;;11.16;100.00;100546.09;682459;28;4405;-63
2022/09/24 00:10:17;;;;;;;9.02;6.70;;;;;;;11.11;100.00;100545.25;685717;28;1914;-65
2022/09/24 00:10:39;;;;;;;9.87;7.10;;;;;;;11.07;100.00;100548.78;688793;28;1084;-62
2022/09/24 00:11:05;;;;;;;9.40;7.18;;;;;;;11.01;100.00;100544.47;689314;28;1147;-63
2022/09/24 00:11:27;;;;;;;8.93;7.18;;;;;;;11.00;100.00;100542.72;686255;28;1076;-63
2022/09/24 00:11:49;;;;;;;8.82;6.90;;;;;;;10.99;100.00;100546.22;687273;28;1120;-63
2022/09/24 00:12:12;;;;;;;9.10;7.13;;;;;;;10.99;100.00;100540.13;685663;28;1232;-62
2022/09/24 00:12:32;;;;;;;8.57;6.82;;;;;;;10.96;100.00;100542.78;684436;28;1164;-64
2022/09/24 00:12:52;;;;;;;9.18;6.82;;;;;;;10.94;100.00;100545.41;685531;28;4962;-63
2022/09/24 00:13:16;;;;;;;8.20;6.73;;;;;;;10.93;100.00;100545.41;685931;28;1259;-63
2022/09/24 00:13:37;;;;;;;9.90;6.82;;;;;;;10.95;100.00;100538.41;688599;28;1232;-62
2022/09/24 00:13:58;;;;;;;11.45;7.00;;;;;;;10.96;100.00;100542.78;689857;28;1375;-64
2022/09/24 00:14:19;;;;;;;9.90;6.88;;;;;;;10.99;100.00;100540.97;688849;28;1017;-63
2022/09/24 00:14:39;;;;;;;8.35;6.78;;;;;;;11.02;100.00;100537.47;689123;28;1263;-64
2022/09/24 00:14:59;;;;;;;8.20;6.83;;;;;;;11.00;100.00;100540.09;688932;28;1107;-62
2022/09/24 00:15:20;;;;;;;9.43;6.90;;;;;;;11.01;100.00;100538.38;689507;28;1101;-64
2022/09/24 00:15:43;;;;;;;8.93;6.60;;;;;;;11.01;100.00;100531.38;688138;28;4460;-64
2022/09/24 00:16:10;;;;;;;9.43;6.75;;;;;;;11.03;100.00;100533.97;690010;28;1096;-63
2022/09/24 00:16:32;;;;;;;9.98;6.80;;;;;;;11.08;100.00;100534.81;686423;28;1204;-63
2022/09/24 00:16:53;;;;;;;8.20;6.45;;;;;;;11.13;100.00;100532.16;688784;28;1060;-63
2022/09/24 00:17:13;;;;;;;9.30;6.40;;;;;;;11.17;100.00;100532.13;688848;28;5250;-62
2022/09/24 00:17:33;;;;;;;8.87;6.60;;;;;;;11.20;100.00;100533.81;688167;28;1112;-62
2022/09/24 00:17:53;;;;;;;9.00;7.10;;;;;;;11.19;100.00;100527.72;687399;28;1433;-63
2022/09/24 00:18:17;;;;;;;7.60;6.60;;;;;;;11.17;100.00;100528.63;688551;28;1333;-64
2022/09/24 00:18:38;;;;;;;8.13;6.55;;;;;;;11.14;100.00;100526.03;688955;28;1411;-63
2022/09/24 00:19:01;;;;;;;8.18;6.68;;;;;;;11.12;100.00;100522.56;686729;28;4680;-63
2022/09/24 00:19:21;;;;;;;8.75;6.57;;;;;;;11.13;100.00;100526.91;686985;28;1211;-62
2022/09/24 00:19:43;;;;;;;8.63;6.50;;;;;;;11.13;100.00;100532.16;688981;28;1473;-62
2022/09/24 00:20:04;;;;;;;8.35;6.50;;;;;;;11.13;100.00;100530.41;690053;28;1306;-63
2022/09/24 00:20:24;;;;;;;8.43;6.63;;;;;;;11.14;100.00;100526.91;688598;28;1420;-62
2022/09/24 00:20:44;;;;;;;8.77;6.90;;;;;;;11.12;100.00;100526.06;687476;28;1310;-64
2022/09/24 00:21:22;;;;;;;8.43;6.47;;;;;;;11.12;100.00;100525.19;684116;28;1485;-63
2022/09/24 00:21:43;;;;;;;8.77;6.43;;;;;;;11.10;100.00;100525.19;683207;28;4476;-63
2022/09/24 00:22:03;;;;;;;8.65;6.45;;;;;;;11.11;100.00;100524.31;686273;28;1294;-62
2022/09/24 00:22:24;;;;;;;9.70;6.53;;;;;;;11.13;100.00;100527.81;686248;28;1208;-62
2022/09/24 00:22:44;;;;;;;9.68;6.35;;;;;;;11.17;100.00;100524.28;689449;28;1321;-63
2022/09/24 00:23:06;;;;;;;7.83;6.33;;;;;;;11.23;100.00;100523.34;689899;28;1297;-64
2022/09/24 00:23:26;;;;;;;8.82;6.38;;;;;;;11.23;100.00;100529.44;688574;28;1598;-64
2022/09/24 00:23:52;;;;;;;8.05;6.20;;;;;;;11.24;100.00;100525.94;687271;28;1494;-63
2022/09/24 00:26:48;;;;;;;7.47;6.10;;;;;;;11.26;100.00;100515.47;685483;28;1094;-63
2022/09/24 00:27:01;;;;;;;9.27;6.75;;;;;;;11.04;100.00;100520.03;688058;28;1338;-64
2022/09/24 00:27:22;;;;;;;8.57;6.40;;;;;;;11.03;100.00;100518.28;688696;28;1022;-62
2022/09/24 00:27:42;;;;;;;8.20;6.47;;;;;;;11.02;100.00;100519.16;692410;28;4588;-62
2022/09/24 00:28:02;;;;;;;8.13;6.35;;;;;;;11.04;100.00;100513.03;692811;28;1316;-62
2022/09/24 00:28:23;;;;;;;10.40;6.57;;;;;;;11.04;100.00;100515.66;692591;28;1099;-63
2022/09/24 00:28:43;;;;;;;9.07;6.20;;;;;;;11.09;100.00;100515.63;692658;28;1301;-63
2022/09/24 00:29:04;;;;;;;7.93;6.30;;;;;;;11.11;100.00;100513.00;690162;28;1274;-63
2022/09/24 00:29:25;;;;;;;8.73;6.50;;;;;;;11.14;100.00;100513.81;689513;28;1103;-62
2022/09/24 00:29:45;;;;;;;8.02;6.63;;;;;;;11.16;100.00;100506.84;690074;28;1573;-63
2022/09/24 00:30:06;;;;;;;7.83;6.67;;;;;;;11.17;100.00;100515.53;689500;28;1445;-62
2022/09/24 00:30:26;;;;;;;7.72;6.45;;;;;;;11.14;100.00;100511.19;688960;28;1934;-63
2022/09/24 00:30:47;;;;;;;8.80;6.37;;;;;;;11.11;100.00;100519.09;686867;28;4321;-63
2022/09/24 00:31:07;;;;;;;9.88;6.65;;;;;;;11.07;100.00;100514.75;689296;28;1372;-64
2022/09/24 00:31:28;;;;;;;10.48;7.00;;;;;;;11.04;100.00;100515.66;686563;28;1064;-63
2022/09/24 00:31:50;;;;;;;8.90;6.90;;;;;;;11.01;100.00;100518.31;682896;28;1135;-63
2022/09/24 00:32:12;;;;;;;7.85;6.53;;;;;;;10.97;100.00;100515.75;682294;28;1572;-64
2022/09/24 00:32:32;;;;;;;9.10;6.90;;;;;;;10.92;100.00;100514.91;681933;28;1259;-64
2022/09/24 00:32:52;;;;;;;9.05;7.20;;;;;;;10.88;100.00;100516.66;685939;28;1514;-62
2022/09/24 00:33:13;;;;;;;9.47;7.17;;;;;;;10.88;100.00;100522.78;686851;28;1157;-63
2022/09/24 00:33:34;;;;;;;10.90;7.10;;;;;;;10.87;100.00;100521.03;686475;28;1235;-63
2022/09/24 00:33:54;;;;;;;9.68;7.03;;;;;;;10.85;100.00;100517.56;684460;28;4469;-62
2022/09/24 00:34:15;;;;;;;9.02;7.20;;;;;;;10.87;100.00;100525.41;685646;28;1152;-62
2022/09/24 00:34:35;;;;;;;9.23;6.83;;;;;;;10.88;100.00;100517.56;686352;28;1578;-62
2022/09/24 00:34:55;;;;;;;8.45;6.70;;;;;;;10.92;100.00;100522.75;686289;28;1534;-63
2022/09/24 00:35:17;;;;;;;8.27;7.07;;;;;;;10.92;100.00;100522.75;685367;28;1122;-63
2022/09/24 00:35:40;;;;;;;9.55;7.00;;;;;;;10.92;100.00;100522.75;687031;28;1124;-62
2022/09/24 00:36:03;;;;;;;8.88;6.63;;;;;;;10.93;100.00;100525.34;686583;28;1119;-63
2022/09/24 00:36:24;;;;;;;8.43;6.70;;;;;;;10.95;100.00;100520.09;686198;28;1097;-63
2022/09/24 00:36:45;;;;;;;8.30;7.00;;;;;;;11.00;100.00;100520.94;688020;28;4312;-63
2022/09/24 00:37:06;;;;;;;7.78;6.80;;;;;;;11.04;100.00;100523.50;689590;28;1283;-62
2022/09/24 00:37:27;;;;;;;8.30;6.88;;;;;;;11.08;100.00;100526.97;690649;28;1278;-63
2022/09/24 00:37:47;;;;;;;8.35;6.70;;;;;;;11.12;100.00;100527.78;690947;28;1077;-63
2022/09/24 00:38:08;;;;;;;9.50;7.13;;;;;;;11.16;100.00;100524.25;687931;28;1247;-62
2022/09/24 00:38:29;;;;;;;9.30;6.90;;;;;;;11.15;100.00;100528.66;692054;28;1263;-62
2022/09/24 00:38:52;;;;;;;8.15;6.90;;;;;;;11.18;100.00;100526.00;692154;28;1432;-64
2022/09/24 00:39:13;;;;;;;9.57;6.88;;;;;;;11.21;100.00;100531.19;689452;28;1164;-63
2022/09/24 00:39:34;;;;;;;8.90;6.82;;;;;;;11.25;100.00;100527.66;687209;28;1323;-63
2022/09/24 00:39:54;;;;;;;9.20;6.60;;;;;;;11.30;100.00;100524.13;684725;28;4352;-64
2022/09/24 00:40:14;;;;;;;9.45;6.80;;;;;;;11.32;100.00;100527.63;685648;28;1096;-63
2022/09/24 00:40:37;;;;;;;8.23;6.87;;;;;;;11.36;100.00;100531.94;687170;28;1002;-62
2022/09/24 00:40:58;;;;;;;9.20;6.82;;;;;;;11.36;100.00;100529.31;687167;28;1097;-62
2022/09/24 00:41:21;;;;;;;8.77;6.95;;;;;;;11.34;100.00;100531.97;687593;28;1266;-62
2022/09/24 00:41:45;;;;;;;9.93;7.18;;;;;;;11.24;100.00;100531.19;686774;28;1262;-63
2022/09/24 00:42:08;;;;;;;8.38;6.55;;;;;;;11.22;100.00;100538.16;687885;28;1251;-62
2022/09/24 00:42:31;;;;;;;8.27;6.78;;;;;;;11.19;100.00;100534.72;688094;28;1378;-62
2022/09/24 00:42:52;;;;;;;8.80;6.60;;;;;;;11.21;100.00;100528.56;688003;28;4501;-63
2022/09/24 00:43:26;;;;;;;9.97;6.90;;;;;;;11.20;100.00;100532.09;689465;28;1159;-62
2022/09/24 00:43:48;;;;;;;7.63;6.57;;;;;;;11.18;100.00;100536.47;688083;28;1061;-63
2022/09/24 00:44:37;;;;;;;8.68;6.65;;;;;;;11.06;100.00;100533.94;689412;28;1215;-62
2022/09/24 00:44:58;;;;;;;8.88;6.78;;;;;;;11.05;100.00;100540.09;682916;28;1523;-63
2022/09/24 00:45:18;;;;;;;8.67;6.90;;;;;;;11.01;100.00;100530.53;681686;28;1422;-63
2022/09/24 00:45:41;;;;;;;9.23;7.03;;;;;;;10.97;100.00;100540.13;684937;28;4687;-64
2022/09/24 00:46:13;;;;;;;8.63;6.70;;;;;;;10.93;100.00;100534.97;689276;28;1267;-62
2022/09/24 00:46:39;;;;;;;8.90;6.93;;;;;;;10.92;100.00;100538.44;687771;28;1262;-63
2022/09/24 00:46:59;;;;;;;7.90;6.60;;;;;;;10.94;100.00;100536.66;688600;28;1246;-65
2022/09/24 00:47:31;;;;;;;7.88;6.70;;;;;;;10.98;100.00;100538.38;689524;28;1044;-63
2022/09/24 00:47:52;;;;;;;8.57;6.80;;;;;;;11.01;100.00;100539.22;689694;28;1276;-62
2022/09/24 00:48:13;;;;;;;9.25;7.07;;;;;;;11.03;100.00;100544.44;688847;28;1096;-63
2022/09/24 00:48:33;;;;;;;8.20;7.18;;;;;;;11.02;100.00;100532.25;689662;28;1260;-62
2022/09/24 00:49:01;;;;;;;9.13;7.03;;;;;;;11.02;100.00;100537.47;685206;28;5167;-62
2022/09/24 00:49:23;;;;;;;8.30;6.80;;;;;;;11.02;100.00;100530.50;685871;28;1057;-63
2022/09/24 00:49:46;;;;;;;8.52;6.75;;;;;;;11.03;100.00;100541.84;685029;28;1884;-65
2022/09/24 00:50:17;;;;;;;8.80;6.88;;;;;;;11.04;100.00;100533.09;684933;28;1227;-64
2022/09/24 00:50:38;;;;;;;7.60;6.65;;;;;;;11.03;100.00;100540.06;684885;28;1240;-63
2022/09/24 00:51:01;;;;;;;8.80;6.70;;;;;;;11.03;100.00;100534.84;684799;28;1069;-62
2022/09/24 00:51:25;;;;;;;9.75;6.93;;;;;;;11.02;100.00;100530.50;686083;28;1171;-62
2022/09/24 00:51:49;;;;;;;8.20;7.20;;;;;;;11.02;100.00;100530.50;688664;28;4474;-62
2022/09/24 00:52:09;;;;;;;9.18;7.18;;;;;;;11.04;100.00;100527.88;689898;28;1271;-62
2022/09/24 00:52:31;;;;;;;10.55;7.10;;;;;;;11.06;100.00;100534.84;688827;28;1178;-63
2022/09/24 00:53:04;;;;;;;10.60;7.05;;;;;;;11.07;100.00;100528.69;687416;28;1667;-63
2022/09/24 00:53:28;;;;;;;8.40;7.00;;;;;;;11.06;100.00;100531.34;686283;28;1242;-63
2022/09/24 00:53:51;;;;;;;9.27;7.25;;;;;;;11.06;100.00;100531.34;684144;28;1444;-63
2022/09/24 00:54:17;;;;;;;9.23;7.30;;;;;;;11.06;100.00;100531.34;683872;28;1390;-63
2022/09/24 00:54:37;;;;;;;9.70;6.65;;;;;;;11.06;100.00;100526.09;684338;28;1105;-62
2022/09/24 00:54:59;;;;;;;9.37;7.00;;;;;;;11.05;100.00;100527.00;684883;28;4265;-62
2022/09/24 00:55:22;;;;;;;8.75;6.90;;;;;;;11.03;100.00;100531.38;686149;28;1046;-62
2022/09/24 00:55:46;;;;;;;9.60;6.97;;;;;;;11.01;100.00;100528.78;685194;28;1089;-63
2022/09/24 00:56:09;;;;;;;9.95;6.88;;;;;;;10.98;100.00;100533.16;687859;28;1045;-63
2022/09/24 00:56:35;;;;;;;8.80;7.10;;;;;;;10.95;100.00;100535.78;688024;28;1275;-62
2022/09/24 00:56:58;;;;;;;10.10;7.38;;;;;;;10.94;100.00;100536.66;685530;28;1756;-62
2022/09/24 00:57:19;;;;;;;10.07;7.43;;;;;;;10.91;100.00;100532.34;683677;28;1057;-62
2022/09/24 00:57:43;;;;;;;9.77;7.20;;;;;;;10.89;100.00;100529.72;684519;28;4401;-63
2022/09/24 00:58:07;;;;;;;10.07;7.32;;;;;;;10.89;100.00;100532.34;683202;28;1602;-63
2022/09/24 00:58:30;;;;;;;9.18;7.22;;;;;;;10.87;100.00;100535.88;683079;28;1293;-63
2022/09/24 00:58:55;;;;;;;9.30;7.05;;;;;;;10.89;100.00;100537.56;686534;28;1614;-64
2022/09/24 00:59:20;;;;;;;8.25;6.80;;;;;;;10.93;100.00;100530.59;686516;28;1065;-63
2022/09/24 00:59:42;;;;;;;9.50;6.80;;;;;;;10.98;100.00;100533.16;689013;28;1114;-63
2022/09/24 01:00:05;;;;;;;9.15;6.70;;;;;;;10.99;100.00;100535.75;688697;28;1032;-63
2022/09/24 01:00:26;;;;;;;8.57;6.70;;;;;;;10.99;100.00;100530.50;678159;28;2219;-64
2022/09/24 01:00:48;;;;;;;8.43;6.53;;;;;;;10.99;100.00;100537.50;680763;28;4483;-62
2022/09/24 01:01:09;;;;;;;9.50;6.72;;;;;;;10.99;100.00;100530.50;685171;28;1382;-62
2022/09/24 01:01:30;;;;;;;9.48;6.95;;;;;;;11.03;100.00;100533.97;685775;28;1435;-62
2022/09/24 01:01:57;;;;;;;9.03;7.00;;;;;;;11.04;100.00;100533.09;684702;28;1227;-64
2022/09/24 01:02:18;;;;;;;7.50;6.70;;;;;;;11.06;100.00;100527.00;682834;28;1110;-65
2022/09/24 01:02:43;;;;;;;8.90;6.90;;;;;;;11.07;100.00;100533.06;678169;28;2483;-63
2022/09/24 01:03:11;;;;;;;8.07;6.82;;;;;;;11.08;100.00;100532.19;689875;28;1235;-62
2022/09/24 01:03:39;;;;;;;9.65;7.10;;;;;;;11.09;100.00;100533.94;690092;28;1138;-63
2022/09/24 01:04:01;;;;;;;9.63;7.10;;;;;;;11.10;100.00;100535.66;687674;28;6378;-63
2022/09/24 01:04:23;;;;;;;8.73;7.15;;;;;;;11.13;100.00;100530.41;688872;28;1169;-63
2022/09/24 01:04:43;;;;;;;9.20;6.88;;;;;;;11.13;100.00;100533.03;689468;28;1656;-62
2022/09/24 01:05:04;;;;;;;9.80;7.30;;;;;;;11.11;100.00;100529.56;689877;28;1105;-63
2022/09/24 01:05:24;;;;;;;9.20;7.75;;;;;;;11.10;100.00;100526.94;687118;28;1411;-64
2022/09/24 01:05:45;;;;;;;10.10;7.57;;;;;;;11.07;100.00;100533.94;687982;28;1159;-63
2022/09/24 01:06:07;;;;;;;9.90;7.30;;;;;;;11.06;100.00;100532.22;689810;28;1235;-64
2022/09/24 01:06:30;;;;;;;9.52;7.45;;;;;;;11.04;100.00;100530.50;689175;28;1391;-62
2022/09/24 01:06:51;;;;;;;9.75;7.13;;;;;;;11.02;100.00;100529.63;686372;28;4330;-63
2022/09/24 01:07:11;;;;;;;9.40;7.03;;;;;;;11.00;100.00;100526.16;687917;28;1355;-63
2022/09/24 01:07:32;;;;;;;8.48;6.80;;;;;;;10.96;100.00;100527.94;690295;28;1087;-62
2022/09/24 01:07:53;;;;;;;8.93;6.80;;;;;;;10.95;100.00;100528.84;690078;28;1472;-63
2022/09/24 01:08:15;;;;;;;9.38;6.70;;;;;;;10.95;100.00;100530.56;689091;28;1140;-63
2022/09/24 01:08:35;;;;;;;9.60;6.78;;;;;;;10.96;100.00;100532.31;688210;28;1163;-64
2022/09/24 01:08:57;;;;;;;10.18;7.10;;;;;;;10.97;100.00;100536.66;690587;28;1247;-63
2022/09/24 01:09:20;;;;;;;9.30;7.50;;;;;;;10.98;100.00;100530.53;688748;28;1006;-63
2022/09/24 01:09:40;;;;;;;9.07;7.30;;;;;;;11.00;100.00;100527.03;685846;28;4509;-62
2022/09/24 01:10:01;;;;;;;9.23;7.47;;;;;;;11.00;100.00;100529.63;685763;28;1073;-64
2022/09/24 01:10:49;;;;;;;9.75;7.15;;;;;;;10.97;100.00;100526.19;686218;28;1966;-63
2022/09/24 01:11:31;;;;;;;9.88;6.90;;;;;;;10.91;100.00;100527.13;687463;28;1280;-63
2022/09/24 01:12:18;;;;;;;9.60;7.18;;;;;;;10.93;100.00;100525.34;689387;28;1155;-63
2022/09/24 01:12:47;;;;;;;9.00;7.30;;;;;;;10.95;100.00;100530.56;688873;28;1151;-62
2022/09/24 01:13:39;;;;;;;9.15;7.32;;;;;;;10.98;100.00;100525.28;688517;28;4756;-63
2022/09/24 01:14:10;;;;;;;10.23;6.85;;;;;;;11.03;100.00;100521.75;684315;28;1507;-62
2022/09/24 01:15:07;;;;;;;8.55;7.00;;;;;;;11.06;100.00;100515.63;689452;28;1393;-63
2022/09/24 01:15:37;;;;;;;9.88;7.35;;;;;;;11.06;100.00;100513.03;689645;28;983;-63
2022/09/24 01:16:24;;;;;;;9.20;7.20;;;;;;;11.08;100.00;100524.34;689512;28;4433;-63
2022/09/24 01:16:55;;;;;;;8.05;7.22;;;;;;;11.07;100.00;100525.22;688362;28;1223;-63
2022/09/24 01:17:20;;;;;;;10.13;7.30;;;;;;;11.08;100.00;100521.75;689146;28;5343;-62
2022/09/24 01:17:57;;;;;;;9.70;7.43;;;;;;;11.06;100.00;100516.53;689305;28;1223;-63
2022/09/24 01:18:44;;;;;;;8.50;7.15;;;;;;;11.07;100.00;100518.22;691177;28;1479;-63
2022/09/24 01:19:10;;;;;;;9.60;7.20;;;;;;;11.05;100.00;100508.69;692093;28;4913;-62
2022/09/24 01:19:54;;;;;;;8.15;7.30;;;;;;;11.05;100.00;100513.94;692720;28;1167;-63
2022/09/24 01:20:27;;;;;;;9.48;6.90;;;;;;;11.03;100.00;100507.81;691066;28;1823;-63
2022/09/24 01:20:56;;;;;;;9.57;7.22;;;;;;;11.00;100.00;100513.09;691643;28;1083;-64
2022/09/24 01:21:32;;;;;;;7.78;6.90;;;;;;;10.97;100.00;100500.03;691932;28;987;-63
2022/09/24 01:22:00;;;;;;;9.20;7.13;;;;;;;10.97;100.00;100500.91;687961;28;4276;-63
2022/09/24 01:23:16;;;;;;;8.85;6.90;;;;;;;11.00;100.00;100500.88;689159;28;1161;-62
2022/09/24 01:24:01;;;;;;;8.63;7.10;;;;;;;11.05;100.00;100503.47;674861;29;2174;-63
2022/09/24 01:24:45;;;;;;;9.23;6.82;;;;;;;11.04;100.00;100502.56;679155;29;1187;-63
2022/09/24 01:25:36;;;;;;;8.82;7.18;;;;;;;11.01;100.00;100501.75;681647;28;5007;-62
2022/09/24 01:26:26;;;;;;;8.77;7.35;;;;;;;11.01;100.00;100496.53;688752;28;1085;-62
2022/09/24 01:27:06;;;;;;;8.93;6.95;;;;;;;11.01;100.00;100499.13;677952;29;1456;-63
2022/09/24 01:27:59;;;;;;;8.90;7.00;;;;;;;11.01;100.00;100496.53;679378;29;1283;-63
2022/09/24 01:28:51;;;;;;;9.43;6.82;;;;;;;11.01;100.00;100494.75;689600;28;5173;-63
2022/09/24 01:30:00;;;;;;;8.30;6.55;;;;;;;11.03;100.00;100503.44;688502;28;1338;-64
2022/09/24 01:30:20;;;;;;;7.97;6.75;;;;;;;11.07;100.00;100491.22;683082;28;1914;-63
2022/09/24 01:30:41;;;;;;;8.97;6.70;;;;;;;11.10;100.00;100496.41;688747;28;4334;-63
2022/09/24 01:31:09;;;;;;;9.43;6.43;;;;;;;11.13;100.00;100495.53;689739;28;1163;-62
2022/09/24 01:31:39;;;;;;;9.40;6.72;;;;;;;11.14;100.00;100492.88;690083;28;1358;-63
2022/09/24 01:32:19;;;;;;;10.65;7.00;;;;;;;11.13;100.00;100493.78;689454;28;1513;-64
2022/09/24 01:32:52;;;;;;;9.15;6.70;;;;;;;11.15;100.00;100501.63;690016;28;1111;-62
2022/09/24 01:33:21;;;;;;;10.15;6.90;;;;;;;11.14;100.00;100492.88;689676;28;1183;-64
2022/09/24 01:33:45;;;;;;;8.85;6.68;;;;;;;11.14;100.00;100503.34;688957;28;4505;-63
2022/09/24 01:34:08;;;;;;;9.20;6.93;;;;;;;11.15;100.00;100505.09;689787;28;1143;-62
2022/09/24 01:34:37;;;;;;;9.43;7.03;;;;;;;11.14;100.00;100498.13;689564;28;1143;-64
2022/09/24 01:35:23;;;;;;;10.80;7.25;;;;;;;11.14;100.00;100505.13;690232;28;1346;-63
2022/09/24 01:35:50;;;;;;;7.97;6.65;;;;;;;11.11;100.00;100498.16;689211;28;1175;-63
2022/09/24 01:36:13;;;;;;;7.90;6.93;;;;;;;11.07;100.00;100493.84;689943;28;1301;-62
2022/09/24 01:36:35;;;;;;;9.00;7.22;;;;;;;11.06;100.00;100505.16;688426;28;1242;-64
2022/09/24 01:36:58;;;;;;;9.20;7.13;;;;;;;11.05;100.00;100499.09;689314;28;4442;-64
2022/09/24 01:37:22;;;;;;;8.13;6.60;;;;;;;11.02;100.00;100503.47;689100;28;1140;-64
2022/09/24 01:37:50;;;;;;;9.38;6.70;;;;;;;10.98;100.00;100504.38;689690;28;1060;-63
2022/09/24 01:38:17;;;;;;;8.40;6.90;;;;;;;10.94;100.00;100503.56;686885;28;1596;-62
2022/09/24 01:38:43;;;;;;;9.77;7.97;;;;;;;10.94;100.00;100497.44;687240;28;1165;-63
2022/09/24 01:39:07;;;;;;;10.35;7.72;;;;;;;10.94;100.00;100498.31;687405;28;1412;-63
2022/09/24 01:39:28;;;;;;;9.98;7.10;;;;;;;10.94;100.00;100500.06;690458;28;1239;-64
2022/09/24 01:39:51;;;;;;;8.73;7.35;;;;;;;10.95;100.00;100500.06;689083;28;4661;-63
2022/09/24 01:40:12;;;;;;;9.77;7.55;;;;;;;10.96;100.00;100498.31;689583;28;1385;-63
2022/09/24 01:40:34;;;;;;;8.60;7.34;;;;;;;10.96;100.00;100491.31;691840;28;1401;-63
2022/09/24 01:40:57;;;;;;;8.85;7.30;;;;;;;10.97;100.00;100495.69;692196;28;1195;-63
2022/09/24 01:41:19;;;;;;;9.27;7.55;;;;;;;10.98;100.00;100501.75;690637;28;1000;-63
2022/09/24 01:41:41;;;;;;;8.77;7.05;;;;;;;11.00;100.00;100498.25;689236;28;1445;-64
2022/09/24 01:42:03;;;;;;;8.77;7.18;;;;;;;11.01;100.00;100499.13;689681;28;1274;-64
2022/09/24 01:42:28;;;;;;;10.00;7.10;;;;;;;11.01;100.00;100493.91;688408;28;1143;-62
2022/09/24 01:42:50;;;;;;;9.57;7.20;;;;;;;11.00;100.00;100494.78;688620;28;4543;-63
2022/09/24 01:43:13;;;;;;;9.15;7.22;;;;;;;11.00;100.00;100494.78;689679;28;1488;-62
2022/09/24 01:43:34;;;;;;;8.68;7.10;;;;;;;10.99;100.00;100496.50;688526;28;1076;-64
2022/09/24 01:43:54;;;;;;;8.93;7.20;;;;;;;11.00;100.00;100486.94;690107;28;1013;-67
2022/09/24 01:44:17;;;;;;;9.45;7.22;;;;;;;11.00;100.00;100494.78;690177;28;1194;-63
2022/09/24 01:44:43;;;;;;;9.00;7.22;;;;;;;11.00;100.00;100494.78;690151;28;1139;-63
2022/09/24 01:45:04;;;;;;;8.13;6.43;;;;;;;10.99;100.00;100487.81;690757;28;1480;-63
2022/09/24 01:45:30;;;;;;;7.50;6.60;;;;;;;10.98;100.00;100486.06;689773;28;1113;-63
2022/09/24 01:45:51;;;;;;;7.90;7.10;;;;;;;10.96;100.00;100493.94;688657;28;4318;-63
2022/09/24 01:46:12;;;;;;;9.10;7.00;;;;;;;10.96;100.00;100493.06;690017;28;1259;-62
2022/09/24 01:46:36;;;;;;;8.90;6.88;;;;;;;10.94;100.00;100490.47;688953;28;1584;-63
2022/09/24 01:46:58;;;;;;;9.88;7.07;;;;;;;10.92;100.00;100493.97;690426;28;1127;-63
2022/09/24 01:47:25;;;;;;;10.52;7.28;;;;;;;10.89;100.00;100492.25;689765;28;1478;-63
2022/09/24 01:47:46;;;;;;;7.88;7.07;;;;;;;10.86;100.00;100489.69;687554;28;1092;-63
2022/09/24 01:48:07;;;;;;;8.45;7.07;;;;;;;10.84;100.00;100489.69;685318;28;1305;-62
2022/09/24 01:48:29;;;;;;;9.35;7.10;;;;;;;10.82;100.00;100488.81;685611;28;1299;-62
2022/09/24 01:48:49;;;;;;;9.48;7.07;;;;;;;10.80;100.00;100487.09;684724;28;4682;-63
2022/09/24 01:49:10;;;;;;;9.20;7.30;;;;;;;10.79;100.00;100486.25;687007;28;1212;-62
2022/09/24 01:49:31;;;;;;;8.70;7.20;;;;;;;10.78;100.00;100489.72;688750;28;1417;-64
2022/09/24 01:49:52;;;;;;;8.43;7.20;;;;;;;10.77;100.00;100490.59;691493;28;1589;-63
2022/09/24 01:50:15;;;;;;;9.50;7.38;;;;;;;10.75;100.00;100495.00;689659;28;1476;-63
2022/09/24 01:51:01;;;;;;;9.07;7.20;;;;;;;10.73;100.00;100494.16;690265;28;1914;-63
2022/09/24 01:51:27;;;;;;;10.40;7.30;;;;;;;10.71;100.00;100488.06;676612;28;1366;-63
2022/09/24 01:51:57;;;;;;;9.43;7.13;;;;;;;10.71;100.00;100488.06;689729;28;4417;-64
2022/09/24 01:52:22;;;;;;;8.57;7.05;;;;;;;10.73;100.00;100483.69;686667;28;1148;-63
2022/09/24 01:52:52;;;;;;;7.97;6.70;;;;;;;10.76;100.00;100480.16;690053;28;1171;-62
2022/09/24 01:53:28;;;;;;;8.38;6.93;;;;;;;10.72;100.00;100480.19;689830;28;1425;-63
2022/09/24 01:54:00;;;;;;;7.93;7.00;;;;;;;10.71;100.00;100480.22;690036;28;1310;-63
2022/09/24 01:54:36;;;;;;;11.75;7.40;;;;;;;10.73;100.00;100479.31;687659;28;1138;-62
2022/09/24 01:54:59;;;;;;;10.40;7.00;;;;;;;10.75;100.00;100479.31;688656;28;4492;-63
2022/09/24 01:55:25;;;;;;;10.30;7.60;;;;;;;10.76;100.00;100480.16;689311;28;996;-63
2022/09/24 01:55:51;;;;;;;8.70;6.97;;;;;;;10.77;100.00;100480.13;689856;28;1345;-62
2022/09/24 01:56:19;;;;;;;9.70;7.07;;;;;;;10.81;100.00;100481.84;688504;28;1735;-63
2022/09/24 01:56:47;;;;;;;9.40;7.20;;;;;;;10.86;100.00;100482.69;685652;28;1212;-62
2022/09/24 01:57:26;;;;;;;9.45;6.63;;;;;;;10.96;100.00;100477.38;687560;28;1294;-63
2022/09/24 01:57:51;;;;;;;8.88;6.88;;;;;;;10.98;100.00;100486.06;688632;28;4329;-64
2022/09/24 01:58:18;;;;;;;9.38;6.90;;;;;;;10.98;100.00;100473.00;689554;28;1311;-63
2022/09/24 01:58:48;;;;;;;8.23;6.50;;;;;;;10.97;100.00;100474.75;689430;28;1306;-63
2022/09/24 01:59:11;;;;;;;8.52;6.80;;;;;;;10.95;100.00;100481.75;687178;28;1297;-64
2022/09/24 01:59:44;;;;;;;8.18;6.90;;;;;;;10.95;100.00;100475.63;684742;28;1447;-63
2022/09/24 02:00:10;;;;;;;9.27;7.40;;;;;;;10.95;100.00;100486.09;684442;28;1109;-63
2022/09/24 02:00:38;;;;;;;10.15;7.00;;;;;;;10.94;100.00;100485.25;684562;28;1094;-64
2022/09/24 02:01:06;;;;;;;9.15;7.22;;;;;;;10.91;100.00;100490.50;687171;28;4860;-64